National Weather Service United States Department of Commerce

Three Weather Areas of Concern Today

Potential Tropical Cyclone Three will gradually approach the northern Gulf Coast with heavy rain and potential flooding. Meanwhile, a sharp cold front will produce severe thunderstorms with significant winds, hail, tornadoes and possible flooding across the Ohio Valley. Finally, a large dome of high pressure will continue the major heat wave over the West, extending into the central Plains. Read More >

FAA logo - Click to go to the FAA homepage

NY TRACON Strategic Planning Aid (SPA)

For ATC Planning Purposes Only - Page refreshes every 5 minutes - See AviationWeather.gov if data is not current
NWS logo - Click to go to the NWS homepage

Pre-Duty Weather Briefing


YELLOW TABS indicate TAF updated within last 30 minutes. RED TABS indicate TAF updated within last 5 minutes.

  • TAF Board
  • Discussion
  • Current Conditions
  • Snow/Ice

Potential Impact None Slight Moderate High
Valid at: 0100 UTC 19 Jun 2021
TimeOBS19/01Z19/02Z19/03Z19/04Z19/05Z19/06Z19/07Z19/08Z19/09Z19/10Z19/11Z19/12Z19/13Z>>
KJFK               WX WX WX        
KLGA               WX WX WX        
KEWR WSpd WSpd           WX WX WX        
KTEB                            
KHPN                            
KISP                            
TimeOBS19/01Z19/02Z19/03Z19/04Z19/05Z19/06Z19/07Z19/08Z19/09Z19/10Z19/11Z19/12Z19/13Z

IMPORTANT: ITWS wind directions are magnetic. METAR/TAF winds are true. Add 13 degrees to METAR/TAF wind to get the magnetic direction.

Latest METAR:
METAR KJFK 182351Z 19018KT 10SM BKN190 BKN250 22/16 A2988 RMK AO2 SLP119
     T02220161 10261 20217 56017
Latest TAF:

Older TAFs
TAF Impact Board
ITWS Winds (GRAPH)
5-min ASOS Data
Hourly Temperature Forecast
General Public Forecast

IMPORTANT: ITWS wind directions are magnetic. METAR/TAF winds are true. Add 13 degrees to METAR/TAF wind to get the magnetic direction.

Latest METAR:
METAR KLGA 182351Z 18010KT 10SM BKN180 BKN250 26/13 A2985 RMK AO2 SLP108
     T02610128 10300 20261 55016
Latest TAF:

Older TAFs
TAF Impact Board
ITWS Winds (GRAPH)
5-min ASOS Data
Hourly Temperature Forecast
General Public Forecast

IMPORTANT: ITWS wind directions are magnetic. METAR/TAF winds are true. Add 13 degrees to METAR/TAF wind to get the magnetic direction.

Latest METAR:
METAR KEWR 182351Z 20012KT 10SM BKN170 BKN250 28/11 A2986 RMK AO2 SLP112
     T02780106 10311 20278 55014
Latest TAF:

Older TAFs
TAF Impact Board
ITWS Winds (GRAPH)
5-min ASOS Data
Hourly Temperature Forecast
General Public Forecast

IMPORTANT: ITWS wind directions are magnetic. METAR/TAF winds are true. Add 13 degrees to METAR/TAF wind to get the magnetic direction.

Latest METAR:
METAR KTEB 182351Z 20011KT 10SM CLR 27/11 A2984 RMK AO2 SLP105 T02670106
     10289 20267 55017
Latest TAF:

Older TAFs
TAF Impact Board
5-min ASOS Data
Hourly Temperature Forecast
General Public Forecast

IMPORTANT: ITWS wind directions are magnetic. METAR/TAF winds are true. Add 13 degrees to METAR/TAF wind to get the magnetic direction.

Latest METAR:
METAR KHPN 182356Z 16007KT 10SM CLR 22/14 A2986 RMK AO2 SLP106 T02220144
     10278 20217 56018
Latest TAF:

Older TAFs
TAF Impact Board
5-min ASOS Data
Hourly Temperature Forecast
General Public Forecast

IMPORTANT: ITWS wind directions are magnetic. METAR/TAF winds are true. Add 13 degrees to METAR/TAF wind to get the magnetic direction.

Latest METAR:
METAR KISP 182356Z 20012G18KT 10SM FEW200 BKN250 22/15 A2989 RMK AO2
     SLP119 T02170150 10267 20217 58019
Latest TAF:

Older TAFs
TAF Impact Board
5-min ASOS Data
Hourly Temperature Forecast
General Public Forecast

 

Forecast Discussion Prepared at 
 
5-Day Outlook
 

 

Click on Radar and Satellite images below for a loop.

Radar Loop

Radar Loop

Regional Flight Category Map

Flight Category

Visible Satellite Loop

Visible Satellite

Infrared Satellite Loop

IR Satellite

Expected Snowfall

Expected Snowfall

Expected Ice Accumulation

Expected Ice Accumulation

Click here for detailed Snow/Ice Info

PIREPs     SIGMETs     AIRMETs     ZNY CWA/MIS     ZBW CWA/MIS

Click on images below to enlarge.

Morning SWAP Statement

(Updated daily April 1 - September 30)

 

Radar Loop

Radar Loop

Convective SIGMETs

Convective SIGMETs

TFM Convective Forecast (TCF)

4-hr TCF

Day 1 SWAP Forecast

Day 1 SWAP Forecast

Day 2 SWAP Outlook

Day 2 SWAP Outlook

Day 3 SWAP Outlook

Day 3 SWAP Outlook

N90 Thunderstorm TDA

N90 Thunderstorm TDA

International Departure Gate Forecast

International Departure Gate Forecast

Domestic Arrival/Departure Fix Forecast

Domestic Arrival/Departure Fix Forecast

N90 Icing TDA

N90 Icing TDA

Current Icing SIGMETs

Icing SIGMETs

Recent Icing PIREPs

Icing PIREPs

00-03 hr Icing AIRMETs

0-3 hr Icing AIRMETs

03-06 hr Icing AIRMETs

3-6 hr Icing AIRMETs

06-09 hr Icing AIRMETs

6-9 hr Icing AIRMETs

 

CIP/FIP Icing Guidance

CIP/FIP Icing Guidance

 

Current Turb SIGMETs

Turb SIGMETs

Recent Turb/LLWS PIREPs

Turb/LLWS PIREPs

Turbulence Guidance (GTG)

GTG

00-03 hr Turb/LLWS AIRMETs

0-3 hr Turb/LLWS AIRMETs

03-06 hr Turb/LLWS AIRMETs

3-6 hr Turb/LLWS AIRMETs

06-09 hr Turb/LLWS AIRMETs

6-9 hr Turb/LLWS AIRMETs

N90 Compression Outlook

N90 Compression Outlook

N90 Compression TDA

N90 Compression TDA